Time;durP1;ratioP1;P1;durP2;ratioP2;P2;SDS_P1;SDS_P2;PMS_P1;PMS_P2;Temp;Humidity;BMP_temperature;BMP_pressure;BME280_temperature;BME280_humidity;BME280_pressure;Samples;Min_cycle;Max_cycle;Signal;HPM_P1;HPM_P2
2023/03/17 00:00:36;;;;;;;6.90;3.90;;;;;;;;;;5122761;27;20034;-78
2023/03/17 00:03:03;;;;;;;5.00;3.70;;;;;;;;;;5121073;27;20039;-78
2023/03/17 00:05:38;;;;;;;5.05;3.75;;;;;;;;;;5140179;27;20493;-78
2023/03/17 00:08:12;;;;;;;6.88;3.78;;;;;;;;;;5140145;27;20035;-78
2023/03/17 00:10:38;;;;;;;7.03;4.00;;;;;;;;;;5141729;27;20051;-78
2023/03/17 00:13:05;;;;;;;6.97;3.70;;;;;;;;;;5137899;27;20046;-78
2023/03/17 00:15:32;;;;;;;4.65;3.85;;;;;;;;;;5139820;27;20092;-78
2023/03/17 00:17:58;;;;;;;5.80;3.60;;;;;;;;;;5138466;27;20439;-78
2023/03/17 00:20:26;;;;;;;4.70;3.78;;;;;;;;;;5117198;27;20057;-77
2023/03/17 00:22:58;;;;;;;4.20;3.80;;;;;;;;;;5137481;27;20046;-79
2023/03/17 00:25:26;;;;;;;5.15;3.95;;;;;;;;;;5120181;27;20050;-78
2023/03/17 00:27:52;;;;;;;5.25;3.85;;;;;;;;;;5118840;27;20118;-78
2023/03/17 00:30:20;;;;;;;6.75;4.10;;;;;;;;;;5135776;27;20508;-78
2023/03/17 00:32:46;;;;;;;5.03;3.58;;;;;;;;;;5126965;27;20541;-78
2023/03/17 00:35:20;;;;;;;8.73;3.70;;;;;;;;;;5140481;27;20085;-78
2023/03/17 00:37:46;;;;;;;5.22;4.10;;;;;;;;;;5142794;27;20038;-78
2023/03/17 00:40:20;;;;;;;6.57;4.00;;;;;;;;;;5118596;27;20806;-78
2023/03/17 00:42:47;;;;;;;4.68;4.00;;;;;;;;;;5134975;27;22062;-78
2023/03/17 00:45:14;;;;;;;5.05;4.00;;;;;;;;;;5137007;27;20103;-78
2023/03/17 00:47:40;;;;;;;4.72;4.13;;;;;;;;;;5137017;27;20146;-78
2023/03/17 00:50:10;;;;;;;5.65;3.97;;;;;;;;;;5140142;27;20042;-79
2023/03/17 00:52:37;;;;;;;6.22;3.92;;;;;;;;;;5122076;27;20089;-79
2023/03/17 00:55:03;;;;;;;6.05;3.90;;;;;;;;;;5138622;27;20403;-79
2023/03/17 00:57:29;;;;;;;5.82;4.00;;;;;;;;;;5118386;27;20094;-78
2023/03/17 00:59:55;;;;;;;5.22;3.90;;;;;;;;;;5137291;27;21216;-78
2023/03/17 01:02:21;;;;;;;6.22;3.78;;;;;;;;;;5116951;27;20035;-79
2023/03/17 01:04:48;;;;;;;6.45;4.30;;;;;;;;;;5140603;27;20095;-79
2023/03/17 01:07:14;;;;;;;7.90;4.82;;;;;;;;;;5129153;27;20042;-79
2023/03/17 01:09:40;;;;;;;4.40;4.00;;;;;;;;;;5143370;27;20155;-78
2023/03/17 01:12:09;;;;;;;5.50;4.20;;;;;;;;;;5131245;27;20038;-78
2023/03/17 01:14:36;;;;;;;4.60;3.97;;;;;;;;;;5126866;27;20039;-79
2023/03/17 01:17:02;;;;;;;5.55;4.07;;;;;;;;;;5127765;27;20110;-79
2023/03/17 01:19:28;;;;;;;4.97;3.95;;;;;;;;;;5140267;27;20063;-78
2023/03/17 01:21:54;;;;;;;6.57;4.20;;;;;;;;;;5121726;27;20502;-79
2023/03/17 01:24:20;;;;;;;7.25;4.22;;;;;;;;;;5115453;27;20043;-78
2023/03/17 01:26:46;;;;;;;5.60;4.05;;;;;;;;;;5124071;27;20039;-79
2023/03/17 01:29:12;;;;;;;5.28;4.28;;;;;;;;;;5116034;27;20043;-79
2023/03/17 01:31:38;;;;;;;5.53;4.28;;;;;;;;;;5116362;27;20043;-79
2023/03/17 01:34:05;;;;;;;8.90;4.20;;;;;;;;;;5117141;27;20042;-79
2023/03/17 01:36:31;;;;;;;6.45;4.45;;;;;;;;;;5114939;27;20398;-79
2023/03/17 01:38:57;;;;;;;7.25;4.68;;;;;;;;;;5121746;27;20046;-78
2023/03/17 01:41:23;;;;;;;6.07;4.80;;;;;;;;;;5117124;27;21640;-78
2023/03/17 01:43:50;;;;;;;5.72;4.65;;;;;;;;;;5116561;27;20104;-78
2023/03/17 01:46:16;;;;;;;6.88;4.60;;;;;;;;;;5113484;27;20122;-78
2023/03/17 01:48:53;;;;;;;4.80;4.30;;;;;;;;;;5115968;27;20439;-78
2023/03/17 01:51:31;;;;;;;7.25;4.88;;;;;;;;;;5112781;27;20043;-78
2023/03/17 01:53:58;;;;;;;6.35;4.43;;;;;;;;;;5114191;28;20490;-78
2023/03/17 01:56:25;;;;;;;5.45;4.70;;;;;;;;;;5117863;28;20062;-78
2023/03/17 01:58:52;;;;;;;6.03;4.80;;;;;;;;;;5118588;28;20047;-78
2023/03/17 02:01:20;;;;;;;5.70;4.88;;;;;;;;;;5113087;28;20047;-79
2023/03/17 02:03:47;;;;;;;7.18;4.93;;;;;;;;;;5117836;28;20047;-78
2023/03/17 02:06:13;;;;;;;7.00;4.53;;;;;;;;;;5116281;28;20038;-79
2023/03/17 02:08:39;;;;;;;6.63;5.07;;;;;;;;;;5115923;28;20047;-79
2023/03/17 02:11:05;;;;;;;7.32;4.50;;;;;;;;;;5115094;28;20430;-78
2023/03/17 02:13:32;;;;;;;5.88;4.75;;;;;;;;;;5115216;27;20035;-78
2023/03/17 02:15:58;;;;;;;6.00;5.10;;;;;;;;;;5117599;27;20100;-78
2023/03/17 02:18:24;;;;;;;7.57;4.75;;;;;;;;;;5120958;27;20047;-78
2023/03/17 02:20:53;;;;;;;7.25;5.10;;;;;;;;;;5117693;27;20077;-79
2023/03/17 02:23:24;;;;;;;6.28;4.82;;;;;;;;;;5122268;27;20058;-79
2023/03/17 02:25:51;;;;;;;7.65;5.50;;;;;;;;;;5127462;27;20046;-79
2023/03/17 02:28:24;;;;;;;7.30;4.40;;;;;;;;;;5115792;27;20134;-79
2023/03/17 02:30:51;;;;;;;6.32;4.97;;;;;;;;;;5119980;27;20071;-79
2023/03/17 02:33:17;;;;;;;7.03;5.10;;;;;;;;;;5126662;27;20111;-78
2023/03/17 02:35:43;;;;;;;6.65;4.70;;;;;;;;;;5123949;27;20059;-79
2023/03/17 02:38:10;;;;;;;6.43;4.85;;;;;;;;;;5125826;27;20035;-79
2023/03/17 02:40:36;;;;;;;7.20;4.80;;;;;;;;;;5126400;27;20155;-79
2023/03/17 02:43:03;;;;;;;5.90;4.72;;;;;;;;;;5127215;27;20047;-79
2023/03/17 02:45:30;;;;;;;6.75;4.80;;;;;;;;;;5126081;27;20573;-79
2023/03/17 02:47:56;;;;;;;8.65;4.88;;;;;;;;;;5128893;27;20046;-79
2023/03/17 02:50:23;;;;;;;6.45;4.95;;;;;;;;;;5125342;27;20127;-79
2023/03/17 02:52:50;;;;;;;7.35;5.15;;;;;;;;;;5130990;27;20039;-79
2023/03/17 02:55:16;;;;;;;6.95;5.47;;;;;;;;;;5119468;27;20040;-79
2023/03/17 02:57:42;;;;;;;6.43;4.93;;;;;;;;;;5128620;27;20372;-78
2023/03/17 03:00:13;;;;;;;7.45;5.47;;;;;;;;;;5127295;27;20039;-79
2023/03/17 03:02:39;;;;;;;6.10;5.25;;;;;;;;;;5127764;27;20049;-79
2023/03/17 03:05:06;;;;;;;6.05;5.03;;;;;;;;;;5131058;27;20069;-79
2023/03/17 03:07:32;;;;;;;6.65;5.07;;;;;;;;;;5130712;27;20039;-79
2023/03/17 03:09:58;;;;;;;5.85;4.78;;;;;;;;;;5124296;27;20046;-79
2023/03/17 03:12:24;;;;;;;6.28;4.90;;;;;;;;;;5128177;27;20375;-79
2023/03/17 03:14:50;;;;;;;7.03;5.18;;;;;;;;;;5125087;27;20131;-78
2023/03/17 03:17:16;;;;;;;7.35;4.78;;;;;;;;;;5121310;27;20070;-79
2023/03/17 03:19:42;;;;;;;5.95;5.20;;;;;;;;;;5122422;27;20493;-79
2023/03/17 03:22:09;;;;;;;6.80;5.15;;;;;;;;;;5127793;27;20059;-79
2023/03/17 03:24:35;;;;;;;7.38;5.15;;;;;;;;;;5124926;27;20063;-79
2023/03/17 03:27:01;;;;;;;7.28;5.28;;;;;;;;;;5125194;27;20088;-79
2023/03/17 03:29:27;;;;;;;6.75;5.00;;;;;;;;;;5116288;27;20051;-78
2023/03/17 03:31:54;;;;;;;6.72;5.20;;;;;;;;;;5122835;27;20456;-79
2023/03/17 03:34:20;;;;;;;8.57;5.40;;;;;;;;;;5127476;27;20043;-78
2023/03/17 03:36:46;;;;;;;6.70;5.40;;;;;;;;;;5123679;27;20058;-79
2023/03/17 03:39:12;;;;;;;5.45;4.88;;;;;;;;;;5128234;27;20470;-79
2023/03/17 03:41:38;;;;;;;6.65;5.53;;;;;;;;;;5132219;27;20168;-79
2023/03/17 03:44:04;;;;;;;6.22;4.93;;;;;;;;;;5126645;27;20585;-79
2023/03/17 03:46:30;;;;;;;7.72;5.18;;;;;;;;;;5129470;27;20391;-78
2023/03/17 03:48:56;;;;;;;8.20;5.05;;;;;;;;;;5131616;27;20050;-78
2023/03/17 03:51:22;;;;;;;6.43;5.15;;;;;;;;;;5121139;27;20042;-78
2023/03/17 03:53:48;;;;;;;6.95;4.90;;;;;;;;;;5130284;27;20039;-79
2023/03/17 03:56:14;;;;;;;5.68;4.75;;;;;;;;;;5122703;27;20047;-79
2023/03/17 03:58:40;;;;;;;8.18;5.30;;;;;;;;;;5128178;27;20050;-78
2023/03/17 04:01:08;;;;;;;6.70;4.85;;;;;;;;;;5122304;27;20054;-79
2023/03/17 04:03:34;;;;;;;7.60;4.80;;;;;;;;;;5131119;27;20043;-79
2023/03/17 04:06:00;;;;;;;5.30;4.63;;;;;;;;;;5126559;27;20449;-79
2023/03/17 04:08:26;;;;;;;5.65;4.40;;;;;;;;;;5123502;27;20051;-79
2023/03/17 04:10:52;;;;;;;6.18;4.63;;;;;;;;;;5131120;27;20452;-79
2023/03/17 04:13:18;;;;;;;4.95;4.20;;;;;;;;;;5129931;27;20084;-79
2023/03/17 04:15:44;;;;;;;6.60;5.22;;;;;;;;;;5125607;27;20047;-78
2023/03/17 04:18:10;;;;;;;6.20;4.95;;;;;;;;;;5121874;27;20054;-79
2023/03/17 04:20:37;;;;;;;5.75;4.40;;;;;;;;;;5124733;27;20051;-78
2023/03/17 04:23:03;;;;;;;5.35;4.65;;;;;;;;;;5143712;27;20050;-79
2023/03/17 04:25:30;;;;;;;6.45;4.47;;;;;;;;;;5130356;27;20050;-79
2023/03/17 04:27:56;;;;;;;7.38;5.00;;;;;;;;;;5132418;27;20073;-79
2023/03/17 04:30:22;;;;;;;7.38;4.50;;;;;;;;;;5149167;27;20043;-78
2023/03/17 04:32:48;;;;;;;7.63;4.97;;;;;;;;;;5148227;27;20083;-79
2023/03/17 04:35:16;;;;;;;7.88;4.85;;;;;;;;;;5126195;27;20053;-78
2023/03/17 04:37:42;;;;;;;5.80;4.80;;;;;;;;;;5126993;27;20034;-78
2023/03/17 04:40:09;;;;;;;6.43;4.78;;;;;;;;;;5144593;27;20122;-79
2023/03/17 04:42:36;;;;;;;6.18;5.18;;;;;;;;;;5131020;27;20038;-78
2023/03/17 04:45:03;;;;;;;6.07;4.75;;;;;;;;;;5133619;27;20042;-79
2023/03/17 04:47:29;;;;;;;7.07;5.07;;;;;;;;;;5147499;27;20050;-78
2023/03/17 04:49:55;;;;;;;6.63;4.75;;;;;;;;;;5150740;27;20038;-78
2023/03/17 04:52:21;;;;;;;5.95;4.50;;;;;;;;;;5133179;27;20045;-79
2023/03/17 04:54:47;;;;;;;6.63;4.40;;;;;;;;;;5126985;27;20043;-79
2023/03/17 04:57:14;;;;;;;5.93;4.53;;;;;;;;;;5137197;27;20035;-78
2023/03/17 04:59:40;;;;;;;7.53;4.70;;;;;;;;;;5132008;27;20088;-79
2023/03/17 05:02:06;;;;;;;5.97;4.75;;;;;;;;;;5129795;27;20504;-79
2023/03/17 05:04:32;;;;;;;6.18;4.47;;;;;;;;;;5126585;27;20050;-79
2023/03/17 05:06:59;;;;;;;7.28;4.68;;;;;;;;;;5127074;27;20385;-79
2023/03/17 05:09:25;;;;;;;5.70;4.90;;;;;;;;;;5130800;27;20054;-79
2023/03/17 05:11:51;;;;;;;5.88;4.65;;;;;;;;;;5124797;27;20062;-79
2023/03/17 05:14:17;;;;;;;4.80;4.30;;;;;;;;;;5142303;27;20088;-79
2023/03/17 05:16:46;;;;;;;4.80;4.30;;;;;;;;;;5151240;27;20035;-79
2023/03/17 05:19:12;;;;;;;4.60;4.20;;;;;;;;;;5124206;27;20051;-78
2023/03/17 05:21:38;;;;;;;6.45;4.75;;;;;;;;;;5150636;27;20047;-78
2023/03/17 05:24:05;;;;;;;6.65;5.28;;;;;;;;;;5145750;27;20122;-79
2023/03/17 05:26:31;;;;;;;5.68;5.07;;;;;;;;;;5130621;27;20047;-79
2023/03/17 05:28:57;;;;;;;6.88;4.43;;;;;;;;;;5122869;27;20045;-79
2023/03/17 05:31:23;;;;;;;6.47;4.30;;;;;;;;;;5121537;27;20038;-79
2023/03/17 05:33:49;;;;;;;5.63;4.43;;;;;;;;;;5132996;27;20053;-79
2023/03/17 05:36:16;;;;;;;6.68;4.10;;;;;;;;;;5142307;27;20405;-79
2023/03/17 05:38:42;;;;;;;5.25;4.60;;;;;;;;;;5133044;27;20045;-79
2023/03/17 05:41:09;;;;;;;6.65;4.55;;;;;;;;;;5130199;27;20050;-80
2023/03/17 05:43:36;;;;;;;5.25;4.40;;;;;;;;;;5127382;27;20046;-79
2023/03/17 05:46:02;;;;;;;5.60;4.30;;;;;;;;;;5131071;27;20042;-78
2023/03/17 05:48:28;;;;;;;5.07;4.18;;;;;;;;;;5144604;27;20038;-79
2023/03/17 05:50:54;;;;;;;4.63;4.22;;;;;;;;;;5120376;27;20390;-79
2023/03/17 05:53:21;;;;;;;5.78;4.35;;;;;;;;;;5124617;27;20047;-79
2023/03/17 05:55:47;;;;;;;5.85;4.90;;;;;;;;;;5151303;27;20039;-79
2023/03/17 05:58:14;;;;;;;6.05;4.53;;;;;;;;;;5124606;27;20067;-80
2023/03/17 06:00:40;;;;;;;7.57;4.63;;;;;;;;;;5149538;27;20142;-78
2023/03/17 06:03:06;;;;;;;4.60;4.20;;;;;;;;;;5130939;27;20054;-79
2023/03/17 06:05:33;;;;;;;6.85;4.53;;;;;;;;;;5125297;27;20057;-79
2023/03/17 06:07:59;;;;;;;5.10;4.30;;;;;;;;;;5146485;27;20046;-79
2023/03/17 06:10:25;;;;;;;4.93;4.38;;;;;;;;;;5129962;27;20185;-79
2023/03/17 06:12:52;;;;;;;10.90;7.40;;;;;;;;;;5131094;27;20043;-80
2023/03/17 06:15:18;;;;;;;9.68;5.22;;;;;;;;;;5130743;27;20050;-80
2023/03/17 06:17:44;;;;;;;7.25;4.70;;;;;;;;;;5145953;27;20050;-79
2023/03/17 06:20:11;;;;;;;6.45;4.70;;;;;;;;;;5125027;27;20046;-79
2023/03/17 06:22:37;;;;;;;4.68;4.10;;;;;;;;;;5144151;27;20051;-80
2023/03/17 06:25:03;;;;;;;6.20;4.28;;;;;;;;;;5129684;27;20043;-80
2023/03/17 06:27:29;;;;;;;4.70;4.00;;;;;;;;;;5149059;27;20035;-79
2023/03/17 06:29:56;;;;;;;5.32;4.72;;;;;;;;;;5148138;27;20038;-79
2023/03/17 06:32:22;;;;;;;6.13;4.13;;;;;;;;;;5126774;27;20039;-79
2023/03/17 06:34:48;;;;;;;7.35;4.32;;;;;;;;;;5145375;27;20039;-79
2023/03/17 06:37:15;;;;;;;5.57;4.10;;;;;;;;;;5146182;27;20039;-80
2023/03/17 06:39:41;;;;;;;6.13;4.45;;;;;;;;;;5125235;27;20070;-80
2023/03/17 06:42:07;;;;;;;7.00;4.20;;;;;;;;;;5128465;27;20492;-80
2023/03/17 06:44:33;;;;;;;9.57;4.55;;;;;;;;;;5122807;28;20058;-79
2023/03/17 06:47:00;;;;;;;6.60;4.10;;;;;;;;;;5137411;27;20034;-79
2023/03/17 06:49:26;;;;;;;6.85;4.00;;;;;;;;;;5153110;27;20050;-78
2023/03/17 06:51:52;;;;;;;4.82;4.22;;;;;;;;;;5146809;27;20092;-78
2023/03/17 06:54:20;;;;;;;7.53;4.40;;;;;;;;;;5150332;27;20117;-79
2023/03/17 06:56:46;;;;;;;7.35;4.07;;;;;;;;;;5146196;27;20474;-79
2023/03/17 06:59:12;;;;;;;4.60;4.10;;;;;;;;;;5134324;27;20042;-79
2023/03/17 07:01:39;;;;;;;6.10;4.30;;;;;;;;;;5128308;27;20452;-79
2023/03/17 07:04:05;;;;;;;5.82;4.00;;;;;;;;;;5148645;27;20486;-78
2023/03/17 07:06:32;;;;;;;7.00;4.13;;;;;;;;;;5132468;27;20051;-79
2023/03/17 07:08:58;;;;;;;5.05;4.00;;;;;;;;;;5126199;27;20042;-78
2023/03/17 07:11:25;;;;;;;7.45;4.15;;;;;;;;;;5121471;27;20049;-78
2023/03/17 07:13:51;;;;;;;6.72;4.47;;;;;;;;;;5144115;27;20046;-78
2023/03/17 07:16:19;;;;;;;9.90;4.70;;;;;;;;;;5128899;27;20055;-78
2023/03/17 07:18:45;;;;;;;5.53;4.35;;;;;;;;;;5130108;27;20147;-78
2023/03/17 07:21:11;;;;;;;5.53;4.45;;;;;;;;;;5132721;27;21146;-78
2023/03/17 07:23:37;;;;;;;7.13;4.60;;;;;;;;;;5152817;27;20061;-78
2023/03/17 07:26:04;;;;;;;5.45;4.40;;;;;;;;;;5144094;27;20076;-78
2023/03/17 07:28:30;;;;;;;6.22;4.40;;;;;;;;;;5127976;27;20046;-78
2023/03/17 07:30:56;;;;;;;6.47;4.68;;;;;;;;;;5130350;27;20039;-79
2023/03/17 07:33:24;;;;;;;6.57;4.22;;;;;;;;;;5128748;27;20046;-78
2023/03/17 07:35:50;;;;;;;4.82;4.32;;;;;;;;;;5128883;27;20049;-78
2023/03/17 07:38:17;;;;;;;6.43;4.15;;;;;;;;;;5151356;27;20039;-78
2023/03/17 07:40:46;;;;;;;6.28;4.32;;;;;;;;;;5138442;27;20039;-78
2023/03/17 07:43:12;;;;;;;5.72;4.22;;;;;;;;;;5152062;27;20054;-78
2023/03/17 07:45:38;;;;;;;6.85;4.50;;;;;;;;;;5149031;27;20397;-78
2023/03/17 07:48:05;;;;;;;5.38;4.18;;;;;;;;;;5142475;27;20478;-78
2023/03/17 07:50:31;;;;;;;5.97;4.60;;;;;;;;;;5146851;27;20051;-78
2023/03/17 07:52:57;;;;;;;6.10;4.20;;;;;;;;;;5134192;27;20382;-78
2023/03/17 07:55:23;;;;;;;6.25;4.20;;;;;;;;;;5129569;27;20068;-78
2023/03/17 07:57:50;;;;;;;8.05;4.43;;;;;;;;;;5130832;27;20061;-78
2023/03/17 08:00:16;;;;;;;6.60;4.53;;;;;;;;;;5133089;27;20039;-78
2023/03/17 08:02:43;;;;;;;8.13;4.43;;;;;;;;;;5142211;27;20103;-78
2023/03/17 08:05:09;;;;;;;6.40;4.53;;;;;;;;;;5147588;27;20375;-78
2023/03/17 08:07:38;;;;;;;6.57;4.53;;;;;;;;;;5132908;27;20058;-78
2023/03/17 08:10:06;;;;;;;7.55;4.40;;;;;;;;;;5132991;27;20039;-78
2023/03/17 08:12:32;;;;;;;6.18;4.40;;;;;;;;;;5132590;27;20038;-78
2023/03/17 08:14:58;;;;;;;7.55;4.43;;;;;;;;;;5148901;27;20122;-78
2023/03/17 08:17:26;;;;;;;7.57;4.20;;;;;;;;;;5122168;27;20047;-79
2023/03/17 08:19:55;;;;;;;5.20;3.72;;;;;;;;;;5153267;27;20177;-79
2023/03/17 08:22:21;;;;;;;5.55;3.90;;;;;;;;;;5121558;27;20070;-78
2023/03/17 08:24:47;;;;;;;6.20;4.00;;;;;;;;;;5131226;27;20122;-78
2023/03/17 08:27:14;;;;;;;8.93;4.57;;;;;;;;;;5125824;27;20082;-78
2023/03/17 08:29:40;;;;;;;6.38;3.97;;;;;;;;;;5124968;27;20039;-78
2023/03/17 08:32:06;;;;;;;6.28;4.40;;;;;;;;;;5147343;27;20039;-78
2023/03/17 08:34:32;;;;;;;5.43;4.38;;;;;;;;;;5130026;27;20057;-78
2023/03/17 08:36:59;;;;;;;8.60;4.72;;;;;;;;;;5149591;27;20046;-78
2023/03/17 08:39:25;;;;;;;9.05;4.40;;;;;;;;;;5140131;27;20125;-78
2023/03/17 08:41:51;;;;;;;6.30;4.60;;;;;;;;;;5125227;27;20043;-79
2023/03/17 08:44:18;;;;;;;6.88;4.80;;;;;;;;;;5130803;27;20035;-78
2023/03/17 08:46:44;;;;;;;9.40;4.63;;;;;;;;;;5127328;27;20043;-79
2023/03/17 08:49:11;;;;;;;6.22;4.80;;;;;;;;;;5148657;27;20077;-79
2023/03/17 08:51:38;;;;;;;8.80;4.70;;;;;;;;;;5148037;27;20042;-79
2023/03/17 08:54:04;;;;;;;9.27;5.00;;;;;;;;;;5130710;27;20039;-79
2023/03/17 08:56:30;;;;;;;5.10;3.95;;;;;;;;;;5130944;27;20359;-79
2023/03/17 08:58:58;;;;;;;7.00;4.35;;;;;;;;;;5150117;27;20035;-79
2023/03/17 09:01:25;;;;;;;6.95;4.75;;;;;;;;;;5149043;27;20117;-79
2023/03/17 09:03:53;;;;;;;4.72;3.95;;;;;;;;;;5142181;27;20058;-79
2023/03/17 09:06:21;;;;;;;6.28;4.57;;;;;;;;;;5131210;27;20046;-79
2023/03/17 09:08:49;;;;;;;6.88;4.95;;;;;;;;;;5151823;27;20077;-78
2023/03/17 09:11:19;;;;;;;6.05;4.55;;;;;;;;;;5150205;27;20034;-79
2023/03/17 09:13:46;;;;;;;7.07;4.47;;;;;;;;;;5127325;27;20121;-78
2023/03/17 09:16:13;;;;;;;6.20;4.88;;;;;;;;;;5123282;27;20046;-79
2023/03/17 09:18:39;;;;;;;5.68;4.97;;;;;;;;;;5151676;27;20061;-79
2023/03/17 09:21:06;;;;;;;6.28;4.70;;;;;;;;;;5130085;27;20150;-79
2023/03/17 09:23:32;;;;;;;7.05;5.07;;;;;;;;;;5125255;27;20084;-79
2023/03/17 09:25:58;;;;;;;7.15;5.47;;;;;;;;;;5126024;27;20414;-79
2023/03/17 09:28:24;;;;;;;6.65;5.40;;;;;;;;;;5123104;27;20042;-79
2023/03/17 09:30:51;;;;;;;8.43;5.55;;;;;;;;;;5148674;27;20092;-79
2023/03/17 09:33:18;;;;;;;6.90;5.30;;;;;;;;;;5148985;27;20084;-79
2023/03/17 09:35:44;;;;;;;6.60;4.93;;;;;;;;;;5127847;27;20058;-79
2023/03/17 09:38:10;;;;;;;6.75;5.57;;;;;;;;;;5147227;27;20035;-79
2023/03/17 09:40:43;;;;;;;8.32;5.38;;;;;;;;;;5130355;27;20034;-79
2023/03/17 09:43:12;;;;;;;6.53;5.50;;;;;;;;;;5139593;27;20419;-79
2023/03/17 09:45:40;;;;;;;7.32;5.22;;;;;;;;;;5147264;27;20527;-79
2023/03/17 09:48:06;;;;;;;7.28;5.55;;;;;;;;;;5119637;27;20367;-79
2023/03/17 09:50:37;;;;;;;7.25;5.30;;;;;;;;;;5140530;27;20050;-78
2023/03/17 09:53:04;;;;;;;9.40;5.25;;;;;;;;;;5145697;27;20058;-79
2023/03/17 09:55:31;;;;;;;6.40;4.80;;;;;;;;;;5130975;27;20462;-79
2023/03/17 09:57:59;;;;;;;6.55;5.18;;;;;;;;;;5124599;27;20435;-79
2023/03/17 10:00:28;;;;;;;6.43;5.35;;;;;;;;;;5148167;27;20058;-80
2023/03/17 10:02:54;;;;;;;7.80;5.40;;;;;;;;;;5130082;27;20501;-80
2023/03/17 10:05:26;;;;;;;9.80;5.82;;;;;;;;;;5143261;27;20065;-79
2023/03/17 10:07:52;;;;;;;10.57;5.18;;;;;;;;;;5145151;27;20058;-80
2023/03/17 10:10:28;;;;;;;9.45;5.00;;;;;;;;;;5145512;27;20046;-79
2023/03/17 10:13:09;;;;;;;7.22;4.90;;;;;;;;;;5149969;27;20031;-80
2023/03/17 10:15:52;;;;;;;7.60;5.55;;;;;;;;;;5130793;27;20045;-79
2023/03/17 10:18:23;;;;;;;8.55;5.40;;;;;;;;;;5125959;27;20382;-80
2023/03/17 10:20:51;;;;;;;6.93;5.30;;;;;;;;;;5150568;27;20039;-78
2023/03/17 10:23:20;;;;;;;9.15;5.60;;;;;;;;;;5144222;27;20045;-79
2023/03/17 10:25:47;;;;;;;7.63;5.18;;;;;;;;;;5142905;27;20509;-79
2023/03/17 10:28:16;;;;;;;8.43;5.50;;;;;;;;;;5129369;27;20119;-79
2023/03/17 10:30:42;;;;;;;6.78;5.60;;;;;;;;;;5126308;27;20122;-79
2023/03/17 10:33:08;;;;;;;7.95;5.63;;;;;;;;;;5127062;27;20039;-79
2023/03/17 10:35:38;;;;;;;7.00;5.35;;;;;;;;;;5151441;27;20046;-79
2023/03/17 10:38:16;;;;;;;8.57;5.60;;;;;;;;;;5153464;27;20058;-80
2023/03/17 10:40:46;;;;;;;10.48;5.85;;;;;;;;;;5131331;27;20179;-79
2023/03/17 10:43:16;;;;;;;6.55;5.60;;;;;;;;;;5153000;27;20340;-79
2023/03/17 10:45:46;;;;;;;6.22;5.57;;;;;;;;;;5132374;27;20482;-78
2023/03/17 10:48:17;;;;;;;7.57;5.75;;;;;;;;;;5126460;27;20043;-78
2023/03/17 10:50:45;;;;;;;7.15;5.72;;;;;;;;;;5147162;27;20102;-78
2023/03/17 10:53:26;;;;;;;7.38;5.60;;;;;;;;;;5132009;27;20045;-78
2023/03/17 10:55:53;;;;;;;9.77;5.95;;;;;;;;;;5146404;27;20102;-79
2023/03/17 10:58:21;;;;;;;6.38;5.30;;;;;;;;;;5147261;27;20035;-79
2023/03/17 11:00:59;;;;;;;8.38;5.82;;;;;;;;;;5129680;27;20066;-79
2023/03/17 11:03:45;;;;;;;7.20;5.90;;;;;;;;;;5123804;27;20121;-79
2023/03/17 11:06:19;;;;;;;9.88;6.50;;;;;;;;;;5151971;27;20457;-79
2023/03/17 11:08:49;;;;;;;8.77;6.25;;;;;;;;;;5145786;27;20118;-79
2023/03/17 11:11:25;;;;;;;8.15;6.03;;;;;;;;;;5149046;27;20039;-79
2023/03/17 11:13:51;;;;;;;9.52;6.45;;;;;;;;;;5147594;27;20035;-80
2023/03/17 11:16:23;;;;;;;8.75;6.72;;;;;;;;;;5133750;27;20047;-79
2023/03/17 11:18:59;;;;;;;8.43;6.50;;;;;;;;;;5148932;27;20034;-79
2023/03/17 11:21:33;;;;;;;9.65;6.60;;;;;;;;;;5133751;27;20046;-79
2023/03/17 11:24:11;;;;;;;10.40;7.07;;;;;;;;;;5130099;27;20053;-79
2023/03/17 11:26:56;;;;;;;8.52;6.88;;;;;;;;;;5128429;27;20039;-80
2023/03/17 11:29:23;;;;;;;9.55;7.05;;;;;;;;;;5127365;27;20051;-80
2023/03/17 11:32:07;;;;;;;9.80;7.22;;;;;;;;;;5123798;27;20039;-79
2023/03/17 11:34:51;;;;;;;10.30;7.50;;;;;;;;;;5143138;27;20043;-79
2023/03/17 11:37:20;;;;;;;8.60;7.00;;;;;;;;;;5148562;27;20042;-80
2023/03/17 11:40:06;;;;;;;10.90;7.50;;;;;;;;;;5145422;27;20031;-80
2023/03/17 11:42:39;;;;;;;9.88;7.32;;;;;;;;;;5146855;27;20042;-80
2023/03/17 11:45:08;;;;;;;9.55;7.60;;;;;;;;;;5130455;27;20051;-80
2023/03/17 11:47:48;;;;;;;10.45;7.45;;;;;;;;;;5147417;27;20035;-78
2023/03/17 11:50:17;;;;;;;11.40;7.75;;;;;;;;;;5121247;27;20050;-80
2023/03/17 11:52:52;;;;;;;10.88;7.82;;;;;;;;;;5147153;27;20047;-74
2023/03/17 11:55:31;;;;;;;13.45;7.63;;;;;;;;;;5129558;27;20386;-79
2023/03/17 11:57:59;;;;;;;11.23;7.95;;;;;;;;;;5143786;27;20125;-80
2023/03/17 12:00:30;;;;;;;12.77;7.80;;;;;;;;;;5126318;27;20658;-80
2023/03/17 12:03:05;;;;;;;11.82;7.95;;;;;;;;;;5130209;27;20034;-79
2023/03/17 12:05:33;;;;;;;10.75;8.15;;;;;;;;;;5152488;27;20065;-80
2023/03/17 12:08:01;;;;;;;13.77;8.50;;;;;;;;;;5132450;27;20387;-79
2023/03/17 12:10:36;;;;;;;11.63;8.57;;;;;;;;;;5143520;27;20394;-79
2023/03/17 12:13:08;;;;;;;10.93;8.13;;;;;;;;;;5148425;27;20046;-80
2023/03/17 12:15:37;;;;;;;10.60;7.90;;;;;;;;;;5125239;27;20092;-79
2023/03/17 12:18:12;;;;;;;10.40;8.73;;;;;;;;;;5131096;27;20041;-79
2023/03/17 12:20:46;;;;;;;11.35;8.30;;;;;;;;;;5148701;27;20031;-80
2023/03/17 12:23:16;;;;;;;9.80;8.23;;;;;;;;;;5127544;27;20054;-80
2023/03/17 12:25:45;;;;;;;10.90;8.48;;;;;;;;;;5146182;27;20042;-80
2023/03/17 12:28:15;;;;;;;11.38;8.77;;;;;;;;;;5151104;27;20035;-79
2023/03/17 12:30:50;;;;;;;12.68;9.23;;;;;;;;;;5131044;27;20042;-80
2023/03/17 12:33:20;;;;;;;10.57;9.13;;;;;;;;;;5132338;27;20046;-79
2023/03/17 12:35:46;;;;;;;10.88;9.13;;;;;;;;;;5148122;27;20069;-79
2023/03/17 12:38:34;;;;;;;13.20;9.02;;;;;;;;;;5151079;27;20053;-79
2023/03/17 12:41:14;;;;;;;12.20;9.65;;;;;;;;;;5146475;27;20049;-79
2023/03/17 12:43:58;;;;;;;11.35;9.35;;;;;;;;;;5127233;27;20386;-80
2023/03/17 12:46:27;;;;;;;11.77;9.25;;;;;;;;;;5126153;27;20053;-79
2023/03/17 12:49:00;;;;;;;13.50;9.82;;;;;;;;;;5128854;27;20099;-80
2023/03/17 12:51:33;;;;;;;12.15;9.60;;;;;;;;;;5128578;27;20049;-79
2023/03/17 12:54:00;;;;;;;12.23;9.73;;;;;;;;;;5127580;27;20030;-79
2023/03/17 12:56:27;;;;;;;12.38;9.90;;;;;;;;;;5138212;27;20138;-79
2023/03/17 12:58:58;;;;;;;12.48;10.00;;;;;;;;;;5141831;27;20398;-79
2023/03/17 13:01:40;;;;;;;12.25;9.57;;;;;;;;;;5145424;27;20053;-78
2023/03/17 13:04:06;;;;;;;12.52;9.93;;;;;;;;;;5128782;27;20047;-78
2023/03/17 13:06:37;;;;;;;11.38;9.35;;;;;;;;;;5146179;27;20046;-79
2023/03/17 13:09:22;;;;;;;14.98;10.05;;;;;;;;;;5119389;27;20061;-78
2023/03/17 13:11:48;;;;;;;13.32;9.73;;;;;;;;;;5129759;27;20042;-78
2023/03/17 13:14:25;;;;;;;14.02;9.75;;;;;;;;;;5138438;27;20137;-78
2023/03/17 13:16:52;;;;;;;15.35;9.95;;;;;;;;;;5123403;27;20073;-78
2023/03/17 13:19:20;;;;;;;13.15;10.10;;;;;;;;;;5128989;27;20085;-78
2023/03/17 13:21:52;;;;;;;12.95;9.75;;;;;;;;;;5129566;27;20422;-78
2023/03/17 13:24:22;;;;;;;11.98;9.20;;;;;;;;;;5126759;27;20520;-78
2023/03/17 13:27:03;;;;;;;13.57;9.77;;;;;;;;;;5121482;27;20050;-79
2023/03/17 13:29:32;;;;;;;12.52;10.00;;;;;;;;;;5147811;27;20042;-79
2023/03/17 13:32:17;;;;;;;12.07;9.77;;;;;;;;;;5119772;27;20042;-78
2023/03/17 13:34:51;;;;;;;14.00;9.95;;;;;;;;;;5122382;27;20047;-79
2023/03/17 13:37:28;;;;;;;11.90;9.55;;;;;;;;;;5149126;27;20031;-79
2023/03/17 13:40:17;;;;;;;12.52;9.80;;;;;;;;;;5146116;27;20035;-79
2023/03/17 13:42:50;;;;;;;14.02;9.73;;;;;;;;;;5092979;27;20043;-79
2023/03/17 13:45:26;;;;;;;12.35;10.38;;;;;;;;;;5149971;27;20042;-79
2023/03/17 13:47:54;;;;;;;15.45;10.35;;;;;;;;;;5130076;27;20172;-79
2023/03/17 13:50:24;;;;;;;13.18;9.93;;;;;;;;;;5119888;27;20047;-79
2023/03/17 13:52:55;;;;;;;14.27;10.30;;;;;;;;;;5132314;27;20043;-79
2023/03/17 13:55:22;;;;;;;11.23;9.25;;;;;;;;;;5128852;27;20043;-79
2023/03/17 13:57:57;;;;;;;14.57;10.07;;;;;;;;;;5132113;27;20074;-79
2023/03/17 14:00:27;;;;;;;15.32;10.55;;;;;;;;;;5130396;27;20043;-79
2023/03/17 14:03:12;;;;;;;15.13;10.38;;;;;;;;;;5129168;27;20083;-79
2023/03/17 14:05:39;;;;;;;12.95;10.70;;;;;;;;;;5128431;27;20046;-79
2023/03/17 14:08:07;;;;;;;14.27;10.48;;;;;;;;;;5129434;27;20485;-79
2023/03/17 14:10:34;;;;;;;12.88;10.27;;;;;;;;;;5131419;27;20035;-79
2023/03/17 14:13:19;;;;;;;13.35;10.80;;;;;;;;;;5137268;27;20497;-79
2023/03/17 14:15:46;;;;;;;13.70;10.32;;;;;;;;;;5134909;27;20045;-79
2023/03/17 14:18:17;;;;;;;14.98;10.52;;;;;;;;;;5148683;27;20078;-79
2023/03/17 14:20:57;;;;;;;14.75;10.70;;;;;;;;;;5147919;27;20038;-79
2023/03/17 14:23:23;;;;;;;16.40;11.10;;;;;;;;;;5131887;27;20039;-79
2023/03/17 14:25:50;;;;;;;14.07;9.98;;;;;;;;;;5135447;27;20095;-79
2023/03/17 14:28:17;;;;;;;12.52;10.30;;;;;;;;;;5132828;27;20079;-78
2023/03/17 14:30:51;;;;;;;15.45;10.40;;;;;;;;;;5145885;27;20035;-79
2023/03/17 14:33:22;;;;;;;14.98;10.75;;;;;;;;;;5129956;27;20058;-79
2023/03/17 14:35:49;;;;;;;13.50;10.88;;;;;;;;;;5132405;27;20074;-80
2023/03/17 14:38:18;;;;;;;16.80;10.63;;;;;;;;;;5148096;27;20051;-78
2023/03/17 14:40:44;;;;;;;13.30;10.13;;;;;;;;;;5130912;27;20046;-78
2023/03/17 14:43:10;;;;;;;13.25;11.07;;;;;;;;;;5135921;27;20035;-78
2023/03/17 14:45:47;;;;;;;12.57;10.80;;;;;;;;;;5133013;27;20125;-78